Terminal Aerodrome Forecast
Issued by NWS

Home | Current Version | Previous Version | Text Only | Print | Product List | Glossary On
Versions: 1 2 3 4 5 6 7 8 9 10 11 12
000
FTPA31 PHFO 311700
TAFKOA
TAF
PHKO 311737Z 3118/0118 VRB03KT P6SM FEW050
     FM312000 24008KT P6SM SCT025 SCT050
     FM010200 19005KT P6SM SCT025 BKN050
     FM010400 15005KT P6SM SCT025 BKN050
     FM010900 VRB03KT P6SM FEW050=

USA.gov is the U.S. government's official web portal to all federal, state and local government web resources and services.